Chico, CA (95973)

7:58 AM PDT on May 26, 2015 (GMT -0700)
9th & Ivy Downtown Chico | | Change Station
CLOSE
Current Station
Personal Weather Station
Location: Chico, CA
Elevation: 190 ft
Nearby Weather Stations

Elev 190 ft 39.72 °N, 121.84 °W | Updated 11 seconds ago

Partly Cloudy
Partly Cloudy
60.1 °F
Feels Like 60.1 °F
N
1.8
Wind Variable Wind from SW
Gusts 2.5 mph

Today
High -- | Low -- °F
--% Chance of Precip.
Yesterday
High -- | Low -- °F
Precip. -- in
5:44 AM 8:24 PM
First Quarter, 58% visible
Pressure 29.96 in
Visibility 40.0 miles
Clouds Few 1500 ft
Scattered Clouds 10000 ft
Dew Point 51 °F
Humidity 73%
Rainfall 0.00 in
Snow Depth Not available.
UV 2.0 out of 12
Pollen 6.90 out of 12
Air Quality Not available.
Flu Activity Sporadic
METAR KCIC 261448Z 13010KT 40SM FEW015 SCT100 14/10 A2996

More Conditions Fewer Conditions

Pressure 29.96 in
Visibility 40.0 miles
Clouds Few 1500 ft
Scattered Clouds 10000 ft
Dew Point 51 °F
Humidity 73%
Rainfall 0.00 in
Snow Depth Not available.
UV 2.0 out of 12
Pollen 6.90 out of 12
Air Quality Not available.
Flu Activity Sporadic
METAR KCIC 261448Z 13010KT 40SM FEW015 SCT100 14/10 A2996

More Conditions Fewer Conditions

10-Day Weather Forecast

Almanac

Astronomy

May. 26, 2015 Rise Set
Actual Time
Civil Twilight
Nautical Twilight
Astronomical Twilight
Moon
Length of Visible Light
Length of Day
Tomorrow will be .
, % of the Moon is Illuminated

Today's Extremes

State Highs State Lows

Community

WunderPhotos

Upload Photos

1,824,344 photos uploaded!

WunderBlogs® & News

Nearby

Air Quality

  Air Quality AQ Index Pollutant
Not available.

Snow Depth

Station Depth Elevation

Earthquake Activity

City Distance Mag. Time & Date
Minimum magnitude displayed is 2.5.

Coastal Water Temperatures

Place Temperature

Stations

Nearby Weather Stations

Station Location Temp. Windchill Dew Point Humidity Wind Precip. Elev Updated Type